Time;durP1;ratioP1;P1;durP2;ratioP2;P2;SDS_P1;SDS_P2;PMS_P1;PMS_P2;Temp;Humidity;BMP_temperature;BMP_pressure;BME280_temperature;BME280_humidity;BME280_pressure;Samples;Min_cycle;Max_cycle;Signal;HPM_P1;HPM_P2
2022/08/20 00:01:00;;;;;;;14.43;10.88;;;;;;;;;;4990619;28;21272;-62
2022/08/20 00:03:31;;;;;;;16.50;10.73;;;;;;;;;;4990317;28;20046;-63
2022/08/20 00:05:59;;;;;;;15.10;11.32;;;;;;;;;;5006374;28;20045;-63
2022/08/20 00:08:26;;;;;;;15.05;10.98;;;;;;;;;;5004115;28;20034;-63
2022/08/20 00:10:52;;;;;;;15.63;11.10;;;;;;;;;;5003846;28;20120;-63
2022/08/20 00:13:29;;;;;;;15.43;10.48;;;;;;;;;;5012216;28;20439;-63
2022/08/20 00:15:56;;;;;;;18.13;11.25;;;;;;;;;;5013059;28;20081;-63
2022/08/20 00:18:22;;;;;;;17.83;11.40;;;;;;;;;;5001220;28;20050;-63
2022/08/20 00:20:51;;;;;;;13.23;10.30;;;;;;;;;;4997572;28;20045;-63
2022/08/20 00:23:17;;;;;;;17.25;10.63;;;;;;;;;;5011156;28;20034;-63
2022/08/20 00:25:43;;;;;;;14.60;10.60;;;;;;;;;;5007196;28;20050;-63
2022/08/20 00:28:10;;;;;;;17.52;10.10;;;;;;;;;;5008293;28;20041;-63
2022/08/20 00:30:37;;;;;;;12.55;10.07;;;;;;;;;;5002006;28;20056;-63
2022/08/20 00:33:08;;;;;;;12.68;9.73;;;;;;;;;;5009940;28;20232;-63
2022/08/20 00:35:34;;;;;;;;;;;;;;;;;;4998826;28;20042;-63
2022/08/20 00:38:00;;;;;;;13.57;9.30;;;;;;;;;;5002288;28;19972;-63
2022/08/20 00:40:28;;;;;;;14.82;9.65;;;;;;;;;;5002732;28;21590;-62
2022/08/20 00:42:56;;;;;;;11.57;9.90;;;;;;;;;;5005293;28;20057;-63
2022/08/20 00:45:23;;;;;;;14.40;9.23;;;;;;;;;;5001980;28;20538;-63
2022/08/20 00:47:49;;;;;;;13.55;10.23;;;;;;;;;;4998525;28;20042;-63
2022/08/20 00:50:18;;;;;;;16.90;10.20;;;;;;;;;;5001035;28;20166;-63
2022/08/20 00:52:45;;;;;;;13.55;9.93;;;;;;;;;;5005757;28;20105;-63
2022/08/20 00:55:12;;;;;;;12.75;9.32;;;;;;;;;;5007168;28;20050;-63
2022/08/20 00:57:42;;;;;;;15.57;10.07;;;;;;;;;;4996249;28;20038;-63
2022/08/20 01:00:11;;;;;;;14.18;9.77;;;;;;;;;;5000882;28;20033;-63
2022/08/20 01:02:38;;;;;;;14.57;8.70;;;;;;;;;;5000975;28;20628;-63
2022/08/20 01:05:04;;;;;;;14.38;9.63;;;;;;;;;;4999206;28;20044;-63
2022/08/20 01:07:34;;;;;;;15.88;9.70;;;;;;;;;;5000093;28;20066;-63
2022/08/20 01:10:01;;;;;;;13.95;9.13;;;;;;;;;;5002194;28;20092;-63
2022/08/20 01:12:28;;;;;;;13.38;9.95;;;;;;;;;;5004521;28;20041;-63
2022/08/20 01:14:55;;;;;;;13.63;9.35;;;;;;;;;;5005091;28;20050;-63
2022/08/20 01:17:23;;;;;;;12.57;9.05;;;;;;;;;;4997678;28;20060;-63
2022/08/20 01:19:53;;;;;;;16.75;10.18;;;;;;;;;;5000923;28;20926;-63
2022/08/20 01:25:12;;;;;;;18.48;9.65;;;;;;;;;;5004046;28;20042;-63
2022/08/20 01:27:39;;;;;;;12.63;8.80;;;;;;;;;;4999195;28;20057;-63
2022/08/20 01:30:05;;;;;;;15.35;9.25;;;;;;;;;;5002832;28;20046;-63
2022/08/20 01:32:31;;;;;;;13.80;9.07;;;;;;;;;;5008610;28;20046;-63
2022/08/20 01:34:57;;;;;;;16.38;8.98;;;;;;;;;;5007202;28;20049;-63
2022/08/20 01:37:23;;;;;;;12.23;8.43;;;;;;;;;;4999646;28;20096;-63
2022/08/20 01:39:49;;;;;;;11.70;9.10;;;;;;;;;;5007517;28;20038;-63
2022/08/20 01:42:22;;;;;;;14.00;8.57;;;;;;;;;;5000927;28;20503;-63
2022/08/20 01:44:48;;;;;;;12.73;9.20;;;;;;;;;;4998744;28;20668;-63
2022/08/20 01:47:22;;;;;;;9.80;8.07;;;;;;;;;;5006226;28;20525;-63
2022/08/20 01:49:52;;;;;;;15.25;8.98;;;;;;;;;;5006374;28;20092;-62
2022/08/20 01:52:29;;;;;;;12.02;8.05;;;;;;;;;;5006512;28;20046;-62
2022/08/20 01:54:55;;;;;;;12.18;7.97;;;;;;;;;;5006381;28;20053;-63
2022/08/20 01:57:25;;;;;;;14.73;9.10;;;;;;;;;;5004115;28;20050;-63
2022/08/20 01:59:52;;;;;;;13.68;8.65;;;;;;;;;;5006492;28;20038;-63
2022/08/20 02:02:18;;;;;;;12.15;7.60;;;;;;;;;;5006415;28;20077;-63
2022/08/20 02:04:44;;;;;;;14.30;8.52;;;;;;;;;;4998658;28;20038;-63
2022/08/20 02:07:18;;;;;;;12.80;7.97;;;;;;;;;;5010072;28;20044;-63
2022/08/20 02:09:45;;;;;;;12.18;8.13;;;;;;;;;;5001163;28;20034;-63
2022/08/20 02:12:13;;;;;;;12.75;8.57;;;;;;;;;;4999603;28;20123;-63
2022/08/20 02:14:41;;;;;;;13.38;8.18;;;;;;;;;;5010325;28;20105;-63
2022/08/20 02:17:07;;;;;;;12.55;8.30;;;;;;;;;;5009099;28;20042;-63
2022/08/20 02:19:41;;;;;;;11.60;8.43;;;;;;;;;;4998949;28;20046;-63
2022/08/20 02:22:36;;;;;;;14.15;8.65;;;;;;;;;;5000009;28;21822;-63
2022/08/20 02:25:03;;;;;;;13.15;8.48;;;;;;;;;;4989311;28;20046;-63
2022/08/20 02:27:30;;;;;;;15.18;8.60;;;;;;;;;;4997303;28;20073;-63
2022/08/20 02:29:56;;;;;;;12.80;8.35;;;;;;;;;;5002102;28;20038;-63
2022/08/20 02:32:22;;;;;;;15.63;8.43;;;;;;;;;;5003650;28;20043;-63
2022/08/20 02:34:48;;;;;;;15.93;8.50;;;;;;;;;;5011877;28;20730;-63
2022/08/20 02:37:17;;;;;;;13.52;9.00;;;;;;;;;;5002249;28;20080;-62
2022/08/20 02:39:43;;;;;;;12.15;8.40;;;;;;;;;;5008454;28;20396;-63
2022/08/20 02:42:10;;;;;;;10.80;7.95;;;;;;;;;;5002555;28;20046;-63
2022/08/20 02:44:37;;;;;;;12.68;8.10;;;;;;;;;;5005855;28;20038;-63
2022/08/20 02:47:04;;;;;;;11.88;7.85;;;;;;;;;;5007127;28;20100;-63
2022/08/20 02:49:30;;;;;;;11.85;7.90;;;;;;;;;;5007129;28;20037;-63
2022/08/20 02:51:56;;;;;;;13.98;8.77;;;;;;;;;;5004926;28;20496;-61
2022/08/20 02:54:23;;;;;;;13.45;8.18;;;;;;;;;;5005794;28;20128;-63
2022/08/20 02:56:49;;;;;;;15.32;7.85;;;;;;;;;;4991622;28;20046;-63
2022/08/20 02:59:15;;;;;;;13.18;8.15;;;;;;;;;;5005500;28;20078;-63
2022/08/20 03:01:41;;;;;;;13.85;8.07;;;;;;;;;;5006747;28;20526;-63
2022/08/20 03:04:07;;;;;;;10.52;8.18;;;;;;;;;;5001149;28;20073;-63
2022/08/20 03:06:33;;;;;;;12.18;7.70;;;;;;;;;;5011007;28;20205;-63
2022/08/20 03:08:59;;;;;;;13.93;8.73;;;;;;;;;;5003602;28;20594;-63
2022/08/20 03:11:25;;;;;;;12.00;8.88;;;;;;;;;;5009940;28;20044;-63
2022/08/20 03:13:51;;;;;;;17.13;9.40;;;;;;;;;;5008227;28;20042;-62
2022/08/20 03:16:17;;;;;;;12.90;8.50;;;;;;;;;;5004942;28;20558;-63
2022/08/20 03:18:45;;;;;;;16.77;9.07;;;;;;;;;;5013540;28;20621;-63
2022/08/20 03:21:11;;;;;;;13.13;8.27;;;;;;;;;;5009773;28;20049;-63
2022/08/20 03:23:37;;;;;;;15.23;8.52;;;;;;;;;;5008861;28;20039;-63
2022/08/20 03:26:04;;;;;;;11.75;8.43;;;;;;;;;;4995736;28;20042;-63
2022/08/20 03:28:30;;;;;;;11.77;8.93;;;;;;;;;;5007982;28;20057;-63
2022/08/20 03:30:58;;;;;;;12.13;8.57;;;;;;;;;;5004325;28;20074;-62
2022/08/20 03:33:24;;;;;;;13.73;9.02;;;;;;;;;;5005850;28;20120;-63
2022/08/20 03:35:50;;;;;;;12.40;8.38;;;;;;;;;;4997303;28;20096;-63
2022/08/20 03:38:17;;;;;;;13.15;8.10;;;;;;;;;;5013479;28;20130;-63
2022/08/20 03:40:44;;;;;;;14.98;8.25;;;;;;;;;;5002071;28;20044;-63
2022/08/20 03:43:11;;;;;;;10.52;7.88;;;;;;;;;;5012048;28;20507;-63
2022/08/20 03:45:38;;;;;;;16.08;7.88;;;;;;;;;;5007878;28;20061;-63
2022/08/20 03:48:06;;;;;;;15.85;8.40;;;;;;;;;;5014089;28;20038;-63
2022/08/20 03:50:33;;;;;;;10.70;7.85;;;;;;;;;;5009121;28;20050;-63
2022/08/20 03:52:59;;;;;;;15.98;8.63;;;;;;;;;;5003461;28;20046;-63
2022/08/20 03:55:26;;;;;;;14.77;8.05;;;;;;;;;;5012709;28;20053;-63
2022/08/20 03:57:56;;;;;;;12.85;7.57;;;;;;;;;;5023810;23;20045;-64
2022/08/20 04:00:26;;;;;;;16.38;7.88;;;;;;;;;;5011102;28;20034;-64
2022/08/20 04:02:56;;;;;;;11.13;7.95;;;;;;;;;;5008816;28;20056;-64
2022/08/20 04:05:23;;;;;;;13.50;8.20;;;;;;;;;;5013509;28;20044;-64
2022/08/20 04:07:49;;;;;;;14.23;8.80;;;;;;;;;;5010765;28;20034;-64
2022/08/20 04:10:15;;;;;;;12.68;8.50;;;;;;;;;;5014118;28;20053;-64
2022/08/20 04:12:41;;;;;;;12.15;7.43;;;;;;;;;;5005463;28;20061;-64
2022/08/20 04:15:09;;;;;;;15.80;8.15;;;;;;;;;;4993033;28;20045;-64
2022/08/20 04:17:36;;;;;;;11.90;7.80;;;;;;;;;;4988085;28;20045;-64
2022/08/20 04:20:04;;;;;;;16.38;8.45;;;;;;;;;;5010185;28;20038;-64
2022/08/20 04:22:30;;;;;;;13.07;7.95;;;;;;;;;;5009654;28;20665;-64
2022/08/20 04:24:56;;;;;;;14.63;7.97;;;;;;;;;;5008417;28;20120;-64
2022/08/20 04:27:22;;;;;;;11.45;7.90;;;;;;;;;;5011368;28;20038;-64
2022/08/20 04:29:48;;;;;;;13.73;7.65;;;;;;;;;;5004878;28;20412;-64
2022/08/20 04:32:14;;;;;;;11.40;7.45;;;;;;;;;;5013176;28;20037;-63
2022/08/20 04:34:40;;;;;;;18.58;8.05;;;;;;;;;;5009391;28;20044;-64
2022/08/20 04:37:06;;;;;;;14.68;8.40;;;;;;;;;;5009005;28;20034;-64
2022/08/20 04:39:32;;;;;;;13.48;8.45;;;;;;;;;;5010771;28;20498;-64
2022/08/20 04:41:58;;;;;;;11.15;7.93;;;;;;;;;;5013511;28;20092;-64
2022/08/20 04:44:24;;;;;;;14.50;7.68;;;;;;;;;;5010457;28;20120;-64
2022/08/20 04:46:53;;;;;;;13.45;7.40;;;;;;;;;;4984856;28;20030;-64
2022/08/20 04:49:23;;;;;;;15.38;6.95;;;;;;;;;;5010632;28;20113;-64
2022/08/20 04:51:50;;;;;;;12.95;7.65;;;;;;;;;;5007539;28;20066;-64
2022/08/20 04:54:16;;;;;;;12.52;6.80;;;;;;;;;;5008230;28;20046;-64
2022/08/20 04:56:42;;;;;;;11.32;8.00;;;;;;;;;;5010391;28;20041;-65
2022/08/20 04:59:08;;;;;;;12.90;7.22;;;;;;;;;;5013191;28;20128;-64
2022/08/20 05:01:34;;;;;;;15.38;7.35;;;;;;;;;;4995284;28;20038;-64
2022/08/20 05:04:00;;;;;;;12.73;6.82;;;;;;;;;;5010631;28;20073;-64
2022/08/20 05:06:28;;;;;;;13.05;6.63;;;;;;;;;;5012062;28;20053;-64
2022/08/20 05:08:55;;;;;;;11.57;6.57;;;;;;;;;;4995835;28;20041;-64
2022/08/20 05:11:21;;;;;;;11.73;5.95;;;;;;;;;;5011910;28;20549;-64
2022/08/20 05:13:49;;;;;;;15.23;7.03;;;;;;;;;;5009172;28;20649;-64
2022/08/20 05:16:16;;;;;;;11.38;6.68;;;;;;;;;;5001998;28;20117;-64
2022/08/20 05:18:43;;;;;;;13.13;6.78;;;;;;;;;;5011906;28;20116;-64
2022/08/20 05:21:09;;;;;;;12.07;6.43;;;;;;;;;;5013042;28;20046;-64
2022/08/20 05:23:36;;;;;;;12.77;6.90;;;;;;;;;;5011845;28;20038;-64
2022/08/20 05:26:07;;;;;;;9.50;6.57;;;;;;;;;;5011089;28;20167;-64
2022/08/20 05:28:34;;;;;;;14.25;6.88;;;;;;;;;;5006792;28;20037;-64
2022/08/20 05:31:01;;;;;;;13.25;7.35;;;;;;;;;;5012303;28;20104;-64
2022/08/20 05:33:28;;;;;;;13.90;7.07;;;;;;;;;;5010251;28;20045;-64
2022/08/20 05:35:54;;;;;;;12.77;7.82;;;;;;;;;;5009051;28;20050;-64
2022/08/20 05:38:23;;;;;;;13.82;7.00;;;;;;;;;;5010392;28;20042;-64
2022/08/20 05:40:49;;;;;;;12.45;7.55;;;;;;;;;;5011086;28;20061;-64
2022/08/20 05:43:16;;;;;;;12.73;6.97;;;;;;;;;;5011964;28;20050;-64
2022/08/20 05:45:43;;;;;;;10.63;6.55;;;;;;;;;;5007430;28;20049;-64
2022/08/20 05:48:13;;;;;;;12.05;6.40;;;;;;;;;;5004019;28;20044;-64
2022/08/20 05:50:41;;;;;;;13.73;6.57;;;;;;;;;;5007964;28;20549;-64
2022/08/20 05:53:07;;;;;;;17.30;7.03;;;;;;;;;;5006965;28;20511;-65
2022/08/20 05:55:34;;;;;;;11.48;6.97;;;;;;;;;;5007157;28;20392;-65
2022/08/20 05:58:01;;;;;;;14.75;7.20;;;;;;;;;;4989041;28;20125;-65
2022/08/20 06:00:28;;;;;;;14.73;7.47;;;;;;;;;;5009245;28;20128;-65
2022/08/20 06:05:39;;;;;;;13.48;6.88;;;;;;;;;;5004829;28;20037;-65
2022/08/20 06:08:06;;;;;;;10.23;6.43;;;;;;;;;;5008015;28;20046;-65
2022/08/20 06:10:32;;;;;;;11.32;6.72;;;;;;;;;;5002961;28;20384;-65
2022/08/20 06:12:59;;;;;;;15.23;6.18;;;;;;;;;;5011234;28;20095;-64
2022/08/20 06:15:25;;;;;;;11.90;6.63;;;;;;;;;;5005482;28;20495;-65
2022/08/20 06:17:51;;;;;;;12.23;6.75;;;;;;;;;;5009690;28;20105;-65
2022/08/20 06:20:17;;;;;;;12.07;5.97;;;;;;;;;;5003734;28;20073;-65
2022/08/20 06:22:43;;;;;;;13.18;5.78;;;;;;;;;;4990255;28;20042;-65
2022/08/20 06:25:09;;;;;;;14.10;5.78;;;;;;;;;;5008821;28;20038;-65
2022/08/20 06:27:40;;;;;;;11.50;6.03;;;;;;;;;;5009052;28;20034;-65
2022/08/20 06:30:07;;;;;;;10.63;5.10;;;;;;;;;;5007422;28;20546;-64
2022/08/20 06:32:33;;;;;;;12.30;4.82;;;;;;;;;;5009252;28;20061;-64
2022/08/20 06:35:04;;;;;;;9.75;5.00;;;;;;;;;;4998057;28;20053;-65
2022/08/20 06:37:31;;;;;;;11.82;4.60;;;;;;;;;;4999539;28;20052;-65
2022/08/20 06:40:01;;;;;;;6.95;3.85;;;;;;;;;;5008524;28;20057;-65
2022/08/20 06:42:27;;;;;;;10.02;4.38;;;;;;;;;;5007142;28;20133;-65
2022/08/20 06:44:53;;;;;;;6.82;3.90;;;;;;;;;;5009538;28;20042;-65
2022/08/20 06:47:20;;;;;;;9.43;4.15;;;;;;;;;;5008548;28;20048;-65
2022/08/20 06:49:47;;;;;;;7.97;4.22;;;;;;;;;;5010498;28;20040;-65
2022/08/20 06:52:15;;;;;;;9.73;3.88;;;;;;;;;;5007632;28;20045;-64
2022/08/20 06:54:42;;;;;;;10.82;4.22;;;;;;;;;;5009454;28;20042;-65
2022/08/20 06:57:08;;;;;;;10.20;3.95;;;;;;;;;;5010573;28;20045;-64
2022/08/20 06:59:35;;;;;;;12.52;3.35;;;;;;;;;;4995889;28;20049;-64
2022/08/20 07:02:01;;;;;;;11.25;3.65;;;;;;;;;;5005679;28;20049;-64
2022/08/20 07:04:28;;;;;;;6.72;3.22;;;;;;;;;;5008068;28;20567;-65
2022/08/20 07:06:56;;;;;;;7.75;3.40;;;;;;;;;;5008660;28;20411;-65
2022/08/20 07:09:22;;;;;;;9.85;3.92;;;;;;;;;;5011604;28;20463;-65
2022/08/20 07:11:48;;;;;;;10.63;3.45;;;;;;;;;;4997867;28;20687;-65
2022/08/20 07:14:15;;;;;;;7.50;3.10;;;;;;;;;;5007119;28;20077;-65
2022/08/20 07:16:42;;;;;;;6.72;2.80;;;;;;;;;;5009824;28;20037;-65
2022/08/20 07:19:08;;;;;;;11.38;2.38;;;;;;;;;;4996973;28;20441;-65
2022/08/20 07:21:34;;;;;;;9.25;2.50;;;;;;;;;;5007369;28;20042;-65
2022/08/20 07:24:00;;;;;;;8.07;2.40;;;;;;;;;;5009840;28;20077;-65
2022/08/20 07:26:26;;;;;;;7.13;2.17;;;;;;;;;;5011124;28;20042;-65
2022/08/20 07:28:53;;;;;;;10.30;2.47;;;;;;;;;;5009868;28;20092;-65
2022/08/20 07:34:04;;;;;;;6.35;1.77;;;;;;;;;;5002244;28;20077;-65
2022/08/20 07:36:31;;;;;;;8.07;2.47;;;;;;;;;;5010459;28;20069;-65
2022/08/20 07:38:57;;;;;;;6.80;2.35;;;;;;;;;;5010057;28;20443;-65
2022/08/20 07:41:23;;;;;;;10.07;2.05;;;;;;;;;;4984763;28;20535;-65
2022/08/20 07:43:49;;;;;;;9.23;2.13;;;;;;;;;;4986638;28;20097;-65
2022/08/20 07:46:17;;;;;;;5.30;1.85;;;;;;;;;;4989446;28;20033;-65
2022/08/20 07:48:45;;;;;;;7.63;1.50;;;;;;;;;;5006638;28;20038;-65
2022/08/20 07:51:12;;;;;;;7.75;2.10;;;;;;;;;;5010355;28;20456;-65
2022/08/20 07:53:39;;;;;;;4.78;1.23;;;;;;;;;;5011502;28;20042;-65
2022/08/20 07:56:07;;;;;;;6.25;1.27;;;;;;;;;;5011249;28;20070;-65
2022/08/20 07:58:35;;;;;;;5.38;1.33;;;;;;;;;;5009339;28;20038;-65
2022/08/20 08:01:01;;;;;;;5.95;1.25;;;;;;;;;;5009269;28;20500;-65
2022/08/20 08:03:28;;;;;;;5.88;1.52;;;;;;;;;;5010733;28;20073;-65
2022/08/20 08:05:55;;;;;;;6.55;1.25;;;;;;;;;;5013832;28;20057;-65
2022/08/20 08:08:22;;;;;;;4.93;1.52;;;;;;;;;;4978376;28;20034;-65
2022/08/20 08:10:49;;;;;;;5.63;1.52;;;;;;;;;;4996657;28;20046;-64
2022/08/20 08:13:16;;;;;;;11.73;1.58;;;;;;;;;;5012608;28;20045;-65
2022/08/20 08:15:46;;;;;;;4.22;1.20;;;;;;;;;;5013208;28;20471;-65
2022/08/20 08:18:15;;;;;;;6.47;1.43;;;;;;;;;;4991475;28;20049;-65
2022/08/20 08:20:42;;;;;;;7.32;1.50;;;;;;;;;;5011886;28;20057;-65
2022/08/20 08:23:10;;;;;;;6.88;1.73;;;;;;;;;;5013928;28;20077;-65
2022/08/20 08:25:37;;;;;;;4.43;1.20;;;;;;;;;;5009001;28;20073;-65
2022/08/20 08:28:04;;;;;;;8.30;1.60;;;;;;;;;;5009010;28;20046;-66
2022/08/20 08:30:31;;;;;;;7.30;1.67;;;;;;;;;;4992345;28;20540;-65
2022/08/20 08:35:44;;;;;;;5.88;1.55;;;;;;;;;;4994980;28;20483;-65
2022/08/20 08:38:11;;;;;;;5.43;1.10;;;;;;;;;;5007211;28;20045;-65
2022/08/20 08:40:37;;;;;;;4.72;1.40;;;;;;;;;;5010152;28;20042;-65
2022/08/20 08:43:04;;;;;;;7.30;1.30;;;;;;;;;;4992519;28;20133;-65
2022/08/20 08:45:42;;;;;;;5.90;1.20;;;;;;;;;;5013406;28;20099;-65
2022/08/20 08:48:09;;;;;;;5.45;1.20;;;;;;;;;;5012956;28;20477;-65
2022/08/20 08:50:36;;;;;;;5.72;1.05;;;;;;;;;;5011713;28;20034;-65
2022/08/20 08:53:04;;;;;;;7.45;1.42;;;;;;;;;;5011842;28;20050;-65
2022/08/20 08:55:31;;;;;;;6.32;1.40;;;;;;;;;;5010869;28;20483;-63
2022/08/20 08:57:58;;;;;;;5.63;1.33;;;;;;;;;;5005353;28;20408;-63
2022/08/20 09:00:27;;;;;;;6.20;1.00;;;;;;;;;;5010266;28;20033;-63
2022/08/20 09:02:57;;;;;;;4.65;1.00;;;;;;;;;;5011783;28;20089;-63
2022/08/20 09:05:26;;;;;;;4.88;1.20;;;;;;;;;;5013164;28;20057;-63
2022/08/20 09:07:52;;;;;;;4.72;1.10;;;;;;;;;;5013167;28;20033;-62
2022/08/20 09:10:19;;;;;;;4.35;0.93;;;;;;;;;;5010608;28;20038;-62
2022/08/20 09:12:45;;;;;;;3.72;1.10;;;;;;;;;;4994963;28;20121;-62
2022/08/20 09:15:11;;;;;;;4.72;1.05;;;;;;;;;;5012500;28;20077;-62
2022/08/20 09:17:37;;;;;;;4.50;1.20;;;;;;;;;;5011008;28;20117;-62
2022/08/20 09:20:04;;;;;;;3.58;0.88;;;;;;;;;;5009656;28;20491;-62
2022/08/20 09:22:32;;;;;;;4.63;0.90;;;;;;;;;;4993448;28;20046;-63
2022/08/20 09:24:59;;;;;;;5.40;1.17;;;;;;;;;;5012758;28;20483;-63
2022/08/20 09:27:25;;;;;;;4.68;0.95;;;;;;;;;;5013141;28;20094;-63
2022/08/20 09:29:52;;;;;;;4.22;1.00;;;;;;;;;;4992991;28;20116;-65
2022/08/20 09:32:21;;;;;;;4.20;0.70;;;;;;;;;;5009567;28;20056;-65
2022/08/20 09:34:57;;;;;;;5.25;1.27;;;;;;;;;;5012680;28;20034;-65
2022/08/20 09:37:24;;;;;;;4.97;0.88;;;;;;;;;;5011101;28;20045;-65
2022/08/20 09:39:51;;;;;;;4.45;1.02;;;;;;;;;;5002684;28;20052;-64
2022/08/20 09:42:18;;;;;;;4.82;0.90;;;;;;;;;;5010778;28;20042;-64
2022/08/20 09:44:44;;;;;;;5.88;1.38;;;;;;;;;;4992893;28;20156;-64
2022/08/20 09:47:11;;;;;;;5.45;1.00;;;;;;;;;;5011222;28;20477;-64
2022/08/20 09:49:37;;;;;;;4.10;0.90;;;;;;;;;;5012786;28;20053;-64
2022/08/20 09:52:04;;;;;;;6.20;1.08;;;;;;;;;;5010606;28;20491;-63
2022/08/20 09:54:32;;;;;;;4.07;1.17;;;;;;;;;;5007232;28;20427;-64
2022/08/20 09:57:00;;;;;;;4.82;1.00;;;;;;;;;;5027875;23;20099;-64
2022/08/20 09:59:26;;;;;;;3.40;0.98;;;;;;;;;;5003387;28;20439;-64
2022/08/20 10:01:52;;;;;;;4.15;1.00;;;;;;;;;;5008947;28;20041;-63
2022/08/20 10:04:18;;;;;;;7.80;1.20;;;;;;;;;;5011212;28;20045;-64
2022/08/20 10:06:45;;;;;;;3.30;0.70;;;;;;;;;;5008211;28;20083;-64
2022/08/20 10:09:11;;;;;;;4.18;1.02;;;;;;;;;;5008174;28;20042;-64
2022/08/20 10:11:37;;;;;;;2.83;0.85;;;;;;;;;;5011267;28;20096;-64
2022/08/20 10:14:04;;;;;;;5.88;1.35;;;;;;;;;;5010859;28;20125;-64
2022/08/20 10:16:30;;;;;;;6.13;1.23;;;;;;;;;;5009521;28;20038;-64
2022/08/20 10:18:56;;;;;;;6.20;1.15;;;;;;;;;;5001822;28;20045;-64
2022/08/20 10:21:23;;;;;;;4.15;0.90;;;;;;;;;;5008932;28;20451;-64
2022/08/20 10:23:49;;;;;;;4.13;0.90;;;;;;;;;;5010912;28;20077;-63
2022/08/20 10:26:15;;;;;;;3.95;1.13;;;;;;;;;;4992000;28;20463;-64
2022/08/20 10:28:42;;;;;;;5.05;1.40;;;;;;;;;;4999140;28;20042;-64
2022/08/20 10:31:08;;;;;;;6.45;1.00;;;;;;;;;;5009196;28;20429;-64
2022/08/20 10:33:35;;;;;;;6.32;1.15;;;;;;;;;;5001427;28;20096;-64
2022/08/20 10:36:12;;;;;;;6.05;0.93;;;;;;;;;;5007381;28;20518;-64
2022/08/20 10:38:38;;;;;;;5.50;1.02;;;;;;;;;;5008286;28;20526;-64
2022/08/20 10:41:04;;;;;;;4.22;0.88;;;;;;;;;;5002110;28;20120;-64
2022/08/20 10:43:30;;;;;;;6.18;1.80;;;;;;;;;;5008810;28;20085;-64
2022/08/20 10:45:57;;;;;;;5.82;1.20;;;;;;;;;;5006996;28;20128;-64
2022/08/20 10:48:23;;;;;;;4.80;1.52;;;;;;;;;;5001821;28;20535;-64
2022/08/20 10:50:49;;;;;;;4.18;0.93;;;;;;;;;;5008099;28;20030;-64
2022/08/20 10:53:15;;;;;;;4.90;0.90;;;;;;;;;;5002744;28;20112;-64
2022/08/20 10:55:41;;;;;;;4.28;1.00;;;;;;;;;;5007313;28;20124;-64
2022/08/20 10:58:08;;;;;;;4.78;1.33;;;;;;;;;;5006073;28;20129;-64
2022/08/20 11:00:35;;;;;;;4.93;1.33;;;;;;;;;;5005943;28;20041;-64
2022/08/20 11:03:01;;;;;;;3.28;1.00;;;;;;;;;;5010082;28;20118;-64
2022/08/20 11:05:27;;;;;;;5.97;1.27;;;;;;;;;;5003139;28;20057;-64
2022/08/20 11:07:54;;;;;;;6.05;1.23;;;;;;;;;;4995275;28;20516;-64
2022/08/20 11:10:20;;;;;;;5.30;1.35;;;;;;;;;;5007723;28;20124;-64
2022/08/20 11:12:46;;;;;;;6.70;1.40;;;;;;;;;;4992243;28;20041;-64
2022/08/20 11:15:12;;;;;;;6.28;1.10;;;;;;;;;;5003912;28;20103;-64
2022/08/20 11:17:39;;;;;;;3.95;1.27;;;;;;;;;;5004496;28;20507;-65
2022/08/20 11:20:06;;;;;;;5.43;1.55;;;;;;;;;;4999355;28;20536;-63
2022/08/20 11:22:33;;;;;;;4.60;1.33;;;;;;;;;;5004955;28;20034;-64
2022/08/20 11:24:59;;;;;;;7.75;1.25;;;;;;;;;;5001382;28;20074;-64
2022/08/20 11:27:27;;;;;;;5.15;1.40;;;;;;;;;;4990313;28;20490;-64
2022/08/20 11:29:53;;;;;;;4.63;1.20;;;;;;;;;;4997796;28;20426;-64
2022/08/20 11:32:19;;;;;;;2.97;1.10;;;;;;;;;;5008621;28;20038;-64
2022/08/20 11:34:45;;;;;;;5.60;1.50;;;;;;;;;;5010701;28;20125;-64
2022/08/20 11:37:12;;;;;;;4.47;1.00;;;;;;;;;;5004662;28;20396;-64
2022/08/20 11:39:38;;;;;;;6.80;1.52;;;;;;;;;;5006289;28;20380;-64
2022/08/20 11:42:04;;;;;;;3.78;0.95;;;;;;;;;;5011590;28;20049;-64
2022/08/20 11:44:30;;;;;;;4.93;1.15;;;;;;;;;;5013771;28;20088;-64
2022/08/20 11:47:02;;;;;;;5.40;1.45;;;;;;;;;;5013671;28;20046;-64
2022/08/20 11:49:28;;;;;;;5.03;1.38;;;;;;;;;;5013292;28;20042;-64
2022/08/20 11:51:54;;;;;;;2.97;1.00;;;;;;;;;;5013523;28;20046;-64
2022/08/20 11:54:20;;;;;;;3.58;0.95;;;;;;;;;;4991907;28;20069;-64
2022/08/20 11:56:46;;;;;;;3.78;0.90;;;;;;;;;;5013757;28;20085;-64
2022/08/20 11:59:13;;;;;;;6.40;1.08;;;;;;;;;;5002397;28;20038;-64
2022/08/20 12:01:39;;;;;;;3.65;0.90;;;;;;;;;;5009225;28;20524;-64
2022/08/20 12:04:05;;;;;;;6.32;1.50;;;;;;;;;;5011993;28;20095;-64
2022/08/20 12:06:32;;;;;;;3.75;1.00;;;;;;;;;;4997931;28;20506;-64
2022/08/20 12:08:58;;;;;;;4.63;0.98;;;;;;;;;;5012560;28;20423;-64
2022/08/20 12:11:24;;;;;;;5.43;0.85;;;;;;;;;;5010139;28;20054;-64
2022/08/20 12:13:50;;;;;;;6.35;1.20;;;;;;;;;;5004673;28;20041;-64
2022/08/20 12:16:17;;;;;;;3.20;0.98;;;;;;;;;;5008027;28;20450;-64
2022/08/20 12:18:44;;;;;;;6.70;1.30;;;;;;;;;;5008598;28;20511;-64
2022/08/20 12:21:10;;;;;;;4.57;1.10;;;;;;;;;;5011031;28;20847;-64
2022/08/20 12:23:36;;;;;;;3.67;1.10;;;;;;;;;;5011927;28;20038;-64
2022/08/20 12:26:02;;;;;;;6.68;1.73;;;;;;;;;;5013730;28;20048;-64
2022/08/20 12:28:31;;;;;;;3.88;1.13;;;;;;;;;;5011444;28;20049;-64
2022/08/20 12:30:57;;;;;;;4.47;1.05;;;;;;;;;;5011009;28;20506;-64
2022/08/20 12:33:24;;;;;;;6.22;1.67;;;;;;;;;;4995372;28;20042;-64
2022/08/20 12:35:50;;;;;;;4.15;1.00;;;;;;;;;;5012879;28;20168;-64
2022/08/20 12:38:16;;;;;;;3.97;1.10;;;;;;;;;;4994785;28;20053;-64
2022/08/20 12:40:42;;;;;;;4.65;1.25;;;;;;;;;;5002335;28;20090;-64
2022/08/20 12:43:08;;;;;;;5.35;1.25;;;;;;;;;;5010373;28;20599;-64
2022/08/20 12:45:34;;;;;;;7.53;1.45;;;;;;;;;;5011603;28;20041;-64
2022/08/20 12:48:03;;;;;;;5.07;1.10;;;;;;;;;;5011552;28;20456;-64
2022/08/20 12:50:29;;;;;;;8.70;1.60;;;;;;;;;;5004737;28;20053;-64
2022/08/20 12:52:55;;;;;;;3.72;0.95;;;;;;;;;;5008122;28;20510;-64
2022/08/20 12:55:21;;;;;;;4.75;1.15;;;;;;;;;;5008274;28;20072;-64
2022/08/20 12:57:49;;;;;;;2.88;1.17;;;;;;;;;;5008947;28;20279;-64
2022/08/20 13:00:21;;;;;;;8.05;1.67;;;;;;;;;;5005835;28;20033;-64
2022/08/20 13:02:47;;;;;;;6.25;1.80;;;;;;;;;;4987678;28;20088;-64
2022/08/20 13:05:14;;;;;;;4.88;1.40;;;;;;;;;;5006725;28;20041;-64
2022/08/20 13:07:40;;;;;;;5.88;1.33;;;;;;;;;;5008967;28;20048;-64
2022/08/20 13:10:07;;;;;;;3.78;1.20;;;;;;;;;;5007997;28;20409;-64
2022/08/20 13:12:33;;;;;;;4.45;1.60;;;;;;;;;;5000859;28;20122;-64
2022/08/20 13:14:59;;;;;;;4.43;1.38;;;;;;;;;;4991777;28;20148;-64
2022/08/20 13:17:25;;;;;;;4.05;1.23;;;;;;;;;;5009929;28;20034;-63
2022/08/20 13:19:51;;;;;;;6.05;1.70;;;;;;;;;;5009792;28;20037;-64
2022/08/20 13:22:17;;;;;;;7.18;1.77;;;;;;;;;;5006102;28;20034;-64
2022/08/20 13:24:43;;;;;;;5.20;1.80;;;;;;;;;;5006365;28;20050;-64
2022/08/20 13:27:11;;;;;;;3.78;1.25;;;;;;;;;;5008993;28;20040;-63
2022/08/20 13:29:37;;;;;;;2.55;1.23;;;;;;;;;;5004652;28;20045;-64
2022/08/20 13:32:03;;;;;;;6.65;1.30;;;;;;;;;;5000752;28;20042;-64
2022/08/20 13:34:29;;;;;;;4.32;1.38;;;;;;;;;;5003134;28;20042;-64
2022/08/20 13:36:55;;;;;;;5.10;1.45;;;;;;;;;;5006769;28;20049;-64
2022/08/20 13:39:22;;;;;;;3.67;1.10;;;;;;;;;;4999315;28;20050;-64
2022/08/20 13:41:48;;;;;;;5.18;1.35;;;;;;;;;;5003901;28;20046;-64
2022/08/20 13:44:14;;;;;;;7.20;1.40;;;;;;;;;;5009200;28;20045;-64
2022/08/20 13:46:40;;;;;;;8.32;1.80;;;;;;;;;;5006562;28;20045;-64
2022/08/20 13:49:06;;;;;;;3.58;1.42;;;;;;;;;;4992449;28;20029;-62
2022/08/20 13:51:32;;;;;;;5.63;1.60;;;;;;;;;;4999282;28;20030;-63
2022/08/20 13:53:58;;;;;;;5.90;1.55;;;;;;;;;;5006885;28;20042;-62
2022/08/20 13:56:24;;;;;;;5.65;1.38;;;;;;;;;;5008758;28;20049;-63
2022/08/20 13:58:50;;;;;;;4.13;1.45;;;;;;;;;;5002763;28;20411;-63
2022/08/20 14:01:16;;;;;;;7.63;2.00;;;;;;;;;;5002632;28;20049;-63
2022/08/20 14:03:42;;;;;;;5.75;1.25;;;;;;;;;;5011173;28;20060;-63
2022/08/20 14:06:11;;;;;;;4.65;1.40;;;;;;;;;;5009077;28;20492;-64
2022/08/20 14:08:37;;;;;;;3.95;1.40;;;;;;;;;;5003031;28;20609;-63
2022/08/20 14:11:03;;;;;;;4.63;1.38;;;;;;;;;;5004731;28;20436;-64
2022/08/20 14:13:29;;;;;;;4.20;1.30;;;;;;;;;;5006779;28;20038;-63
2022/08/20 14:15:55;;;;;;;4.93;1.20;;;;;;;;;;5008550;28;20038;-63
2022/08/20 14:18:21;;;;;;;5.15;1.65;;;;;;;;;;5005815;28;20759;-63
2022/08/20 14:20:47;;;;;;;4.80;1.13;;;;;;;;;;4988942;28;20073;-63
2022/08/20 14:23:14;;;;;;;6.55;1.40;;;;;;;;;;4991670;28;20046;-63
2022/08/20 14:25:40;;;;;;;5.78;1.20;;;;;;;;;;4991225;28;20041;-63
2022/08/20 14:28:15;;;;;;;5.32;1.70;;;;;;;;;;5003123;28;20096;-63
2022/08/20 14:30:41;;;;;;;5.05;1.38;;;;;;;;;;5005068;28;20068;-64
2022/08/20 14:33:07;;;;;;;4.45;1.45;;;;;;;;;;5009276;28;20049;-64
2022/08/20 14:35:33;;;;;;;3.92;1.33;;;;;;;;;;4999620;28;20141;-63
2022/08/20 14:37:59;;;;;;;5.97;1.20;;;;;;;;;;4986269;28;20491;-63
2022/08/20 14:40:26;;;;;;;4.63;1.00;;;;;;;;;;5004812;28;20053;-63
2022/08/20 14:42:52;;;;;;;4.20;0.93;;;;;;;;;;5005030;28;20050;-63
2022/08/20 14:45:19;;;;;;;2.92;1.30;;;;;;;;;;5007625;28;20553;-64